Time;durP1;ratioP1;P1;durP2;ratioP2;P2;SDS_P1;SDS_P2;PMS_P1;PMS_P2;Temp;Humidity;BMP_temperature;BMP_pressure;BME280_temperature;BME280_humidity;BME280_pressure;Samples;Min_cycle;Max_cycle;Signal;HPM_P1;HPM_P2
2021/09/18 00:01:55;;;;;;;17.77;13.98;;;13.50;99.90;;;;;;5032066;28;20063;-74
2021/09/18 00:04:21;;;;;;;17.00;15.20;;;13.50;99.90;;;;;;5017555;28;20120;-74
2021/09/18 00:06:46;;;;;;;18.38;16.35;;;13.50;99.90;;;;;;5022149;28;20121;-75
2021/09/18 00:09:12;;;;;;;17.67;15.85;;;13.50;99.90;;;;;;5025860;28;20041;-74
2021/09/18 00:11:37;;;;;;;20.38;16.88;;;13.20;99.90;;;;;;5020930;28;20455;-76
2021/09/18 00:14:04;;;;;;;19.80;16.90;;;13.00;99.90;;;;;;5017748;28;20049;-75
2021/09/18 00:16:29;;;;;;;22.58;19.08;;;12.90;99.90;;;;;;5023708;28;20025;-74
2021/09/18 00:18:55;;;;;;;19.95;16.80;;;12.80;99.90;;;;;;5024548;28;20026;-74
2021/09/18 00:21:20;;;;;;;23.15;18.50;;;12.80;99.90;;;;;;5019186;28;20069;-74
2021/09/18 00:23:46;;;;;;;21.35;17.23;;;12.90;99.90;;;;;;5018889;28;20022;-74
2021/09/18 00:26:11;;;;;;;23.27;17.83;;;13.00;99.90;;;;;;5022536;28;20052;-76
2021/09/18 00:28:38;;;;;;;24.38;18.75;;;12.90;99.90;;;;;;5025323;28;20064;-75
2021/09/18 00:31:04;;;;;;;24.60;18.23;;;13.00;99.90;;;;;;5019501;28;20041;-75
2021/09/18 00:33:29;;;;;;;22.20;17.92;;;12.90;99.90;;;;;;5017651;28;20091;-75
2021/09/18 00:35:55;;;;;;;21.40;18.08;;;12.80;99.90;;;;;;5030971;28;20022;-74
2021/09/18 00:38:20;;;;;;;23.73;18.70;;;12.80;99.90;;;;;;5017396;28;20022;-75
2021/09/18 00:40:46;;;;;;;19.73;16.20;;;12.80;99.90;;;;;;5022882;28;20026;-75
2021/09/18 00:43:12;;;;;;;21.33;17.17;;;13.00;99.90;;;;;;5025407;28;20490;-75
2021/09/18 00:45:37;;;;;;;22.42;18.23;;;13.10;99.90;;;;;;5019464;28;20026;-76
2021/09/18 00:48:03;;;;;;;21.45;18.38;;;13.20;99.90;;;;;;5018553;28;20073;-76
2021/09/18 00:50:29;;;;;;;21.92;18.08;;;13.20;99.90;;;;;;5023244;28;20030;-75
2021/09/18 00:52:54;;;;;;;22.90;19.23;;;13.30;99.90;;;;;;5025195;28;20037;-75
2021/09/18 00:55:20;;;;;;;21.83;18.38;;;13.40;99.90;;;;;;5020204;28;20021;-76
2021/09/18 00:57:45;;;;;;;18.85;16.20;;;13.30;99.90;;;;;;5018654;28;20105;-74
2021/09/18 01:00:13;;;;;;;19.83;17.30;;;13.40;99.90;;;;;;5022792;28;20022;-75
2021/09/18 01:02:40;;;;;;;20.40;18.05;;;13.40;99.90;;;;;;5013393;28;20038;-76
2021/09/18 01:05:07;;;;;;;17.48;15.30;;;13.30;99.90;;;;;;5023434;28;20092;-76
2021/09/18 01:07:33;;;;;;;18.75;16.50;;;13.30;99.90;;;;;;5026598;28;20030;-76
2021/09/18 01:09:59;;;;;;;21.58;18.40;;;13.50;99.90;;;;;;5030404;28;20492;-76
2021/09/18 01:12:25;;;;;;;23.42;19.75;;;13.40;99.90;;;;;;5016698;28;20438;-76
2021/09/18 01:14:50;;;;;;;24.50;19.00;;;13.20;99.90;;;;;;5030585;28;20022;-76
2021/09/18 01:17:17;;;;;;;24.70;19.50;;;13.10;99.90;;;;;;5034063;28;20032;-76
2021/09/18 01:19:43;;;;;;;26.83;20.77;;;13.20;99.90;;;;;;5024368;28;20033;-75
2021/09/18 01:22:09;;;;;;;33.63;23.02;;;13.00;99.90;;;;;;5021872;28;20061;-75
2021/09/18 01:24:36;;;;;;;32.60;23.35;;;12.70;99.90;;;;;;5025833;28;20487;-75
2021/09/18 01:27:02;;;;;;;31.33;22.73;;;12.70;99.90;;;;;;5030600;28;20033;-75
2021/09/18 01:29:28;;;;;;;27.17;20.45;;;12.70;99.90;;;;;;5035183;28;20403;-76
2021/09/18 01:31:54;;;;;;;27.33;21.63;;;12.70;99.90;;;;;;5033903;28;20029;-76
2021/09/18 01:34:21;;;;;;;38.13;24.73;;;12.80;99.90;;;;;;5035338;28;20032;-76
2021/09/18 01:36:48;;;;;;;33.72;24.15;;;12.90;99.90;;;;;;5020009;28;20021;-76
2021/09/18 01:39:15;;;;;;;26.63;21.52;;;12.80;99.90;;;;;;5024223;28;20029;-75
2021/09/18 01:41:43;;;;;;;32.75;23.38;;;12.80;99.90;;;;;;5020600;28;20419;-76
2021/09/18 01:44:09;;;;;;;30.55;22.67;;;12.70;99.90;;;;;;5035139;28;20442;-77
2021/09/18 01:46:35;;;;;;;28.35;22.55;;;12.70;99.90;;;;;;5033860;28;20029;-76
2021/09/18 01:49:00;;;;;;;29.30;22.40;;;12.70;99.90;;;;;;5025832;28;20029;-77
2021/09/18 01:51:29;;;;;;;20.88;18.65;;;12.60;99.90;;;;;;5027580;28;20029;-76
2021/09/18 01:53:55;;;;;;;25.70;20.90;;;12.70;99.90;;;;;;5024417;28;20024;-77
2021/09/18 01:56:20;;;;;;;27.73;21.85;;;12.80;99.90;;;;;;5020377;28;20480;-77
2021/09/18 01:58:46;;;;;;;33.45;24.98;;;12.80;99.90;;;;;;5024802;28;20117;-77
2021/09/18 02:01:11;;;;;;;23.77;19.55;;;12.70;99.90;;;;;;5029677;28;20033;-77
2021/09/18 02:03:37;;;;;;;32.65;24.25;;;12.60;99.90;;;;;;5028245;28;20044;-76
2021/09/18 02:06:03;;;;;;;27.23;21.45;;;12.60;99.90;;;;;;5021779;28;20037;-77
2021/09/18 02:08:28;;;;;;;23.35;19.88;;;12.50;99.90;;;;;;5026977;28;20034;-77
2021/09/18 02:10:56;;;;;;;22.60;18.95;;;12.50;99.90;;;;;;5034188;28;20029;-76
2021/09/18 02:13:23;;;;;;;19.60;17.50;;;12.60;99.90;;;;;;5031857;28;20083;-74
2021/09/18 02:15:49;;;;;;;21.52;17.95;;;12.60;99.90;;;;;;5020387;28;20017;-75
2021/09/18 02:18:14;;;;;;;23.67;20.33;;;12.60;99.90;;;;;;5033298;28;20026;-75
2021/09/18 02:20:41;;;;;;;26.45;20.20;;;12.70;99.90;;;;;;5019472;28;20112;-75
2021/09/18 02:23:08;;;;;;;29.02;20.80;;;12.70;99.90;;;;;;5024073;28;20100;-75
2021/09/18 02:25:34;;;;;;;29.60;22.10;;;12.50;99.90;;;;;;5027575;28;20022;-75
2021/09/18 02:27:59;;;;;;;30.25;20.45;;;12.40;99.90;;;;;;5024797;28;20060;-74
2021/09/18 02:30:29;;;;;;;37.97;25.67;;;12.50;99.90;;;;;;5032778;28;20459;-74
2021/09/18 02:32:55;;;;;;;47.67;28.30;;;12.50;99.90;;;;;;5034020;28;20022;-74
2021/09/18 02:35:23;;;;;;;47.85;25.70;;;12.40;99.90;;;;;;5020769;28;20488;-74
2021/09/18 02:37:51;;;;;;;28.77;22.52;;;12.40;99.90;;;;;;5026044;28;20018;-74
2021/09/18 02:40:16;;;;;;;30.48;23.27;;;12.30;99.90;;;;;;5029250;28;20052;-74
2021/09/18 02:42:48;;;;;;;26.67;20.58;;;12.40;99.90;;;;;;5027284;28;20025;-74
2021/09/18 02:45:14;;;;;;;25.35;20.77;;;12.40;99.90;;;;;;5022132;28;20022;-74
2021/09/18 02:47:40;;;;;;;32.10;23.00;;;12.40;99.90;;;;;;5022276;28;20026;-74
2021/09/18 02:50:08;;;;;;;26.90;20.88;;;12.30;99.90;;;;;;5028250;28;20034;-74
2021/09/18 02:52:34;;;;;;;61.63;28.05;;;12.30;99.90;;;;;;5026257;28;20033;-75
2021/09/18 02:54:59;;;;;;;85.43;33.10;;;12.30;99.90;;;;;;5028309;28;20095;-75
2021/09/18 02:57:25;;;;;;;32.45;22.00;;;12.20;99.90;;;;;;5025815;28;20029;-74
2021/09/18 02:59:51;;;;;;;34.90;22.23;;;12.10;99.90;;;;;;5020875;28;20040;-74
2021/09/18 03:02:16;;;;;;;77.25;24.50;;;12.10;99.90;;;;;;5032596;28;20502;-74
2021/09/18 03:04:42;;;;;;;22.55;18.25;;;12.20;99.90;;;;;;5034150;28;20045;-74
2021/09/18 03:07:08;;;;;;;38.40;21.88;;;12.30;99.90;;;;;;5021917;28;20041;-76
2021/09/18 03:09:33;;;;;;;177.93;41.40;;;12.40;99.90;;;;;;5026933;28;20030;-74
2021/09/18 03:11:59;;;;;;;253.23;45.08;;;12.20;99.90;;;;;;5025154;28;20083;-75
2021/09/18 03:14:24;;;;;;;415.77;46.03;;;11.90;99.90;;;;;;5013829;28;20033;-76
2021/09/18 03:16:50;;;;;;;388.40;54.10;;;11.80;99.90;;;;;;5013708;28;20100;-76
2021/09/18 03:19:16;;;;;;;484.52;59.42;;;11.70;99.90;;;;;;5032274;28;20022;-75
2021/09/18 03:21:42;;;;;;;196.50;28.67;;;11.70;99.90;;;;;;5019673;28;20030;-75
2021/09/18 03:24:08;;;;;;;242.02;32.45;;;11.60;99.90;;;;;;5025345;28;20079;-75
2021/09/18 03:26:34;;;;;;;250.52;36.83;;;11.80;99.90;;;;;;5013446;28;20044;-75
2021/09/18 03:28:59;;;;;;;277.10;49.72;;;11.90;99.90;;;;;;5017942;28;20574;-75
2021/09/18 03:31:25;;;;;;;330.02;55.42;;;11.90;99.90;;;;;;5019074;28;20033;-75
2021/09/18 03:33:50;;;;;;;95.75;30.00;;;11.80;99.90;;;;;;5025274;28;20480;-75
2021/09/18 03:36:16;;;;;;;31.40;24.63;;;11.80;99.90;;;;;;5025763;28;20419;-75
2021/09/18 03:38:41;;;;;;;30.52;23.88;;;12.00;99.90;;;;;;5026660;28;20109;-75
2021/09/18 03:41:07;;;;;;;93.22;28.60;;;12.20;99.90;;;;;;5023774;28;20132;-75
2021/09/18 03:43:32;;;;;;;358.08;44.58;;;12.10;99.90;;;;;;5019649;28;20195;-74
2021/09/18 03:45:58;;;;;;;130.05;35.45;;;11.80;99.90;;;;;;5021040;28;20038;-75
2021/09/18 03:48:23;;;;;;;25.98;21.35;;;11.80;99.90;;;;;;5031590;28;20032;-75
2021/09/18 03:50:49;;;;;;;25.63;21.05;;;11.80;99.90;;;;;;5020703;28;20033;-75
2021/09/18 03:53:14;;;;;;;42.67;28.73;;;11.90;99.90;;;;;;5027477;28;20033;-74
2021/09/18 03:55:40;;;;;;;62.03;32.92;;;12.00;99.90;;;;;;5023265;28;20427;-74
2021/09/18 03:58:06;;;;;;;51.45;28.95;;;11.80;99.90;;;;;;5019239;28;20057;-73
2021/09/18 04:00:31;;;;;;;48.03;29.45;;;11.70;99.90;;;;;;5020908;28;20021;-74
2021/09/18 04:02:57;;;;;;;30.27;23.20;;;11.70;99.90;;;;;;5026388;28;20112;-75
2021/09/18 04:05:22;;;;;;;58.35;31.70;;;11.90;99.90;;;;;;5024016;28;20522;-76
2021/09/18 04:07:48;;;;;;;29.10;23.50;;;11.90;99.90;;;;;;5029536;28;20224;-74
2021/09/18 04:10:14;;;;;;;25.25;20.45;;;11.90;99.90;;;;;;5023478;28;20089;-75
2021/09/18 04:12:40;;;;;;;26.42;21.80;;;11.90;99.90;;;;;;5018803;28;20068;-73
2021/09/18 04:15:05;;;;;;;26.75;22.08;;;11.90;99.90;;;;;;5021918;28;20056;-74
2021/09/18 04:17:31;;;;;;;22.88;19.75;;;12.00;99.90;;;;;;5029556;28;20032;-75
2021/09/18 04:19:56;;;;;;;23.98;20.63;;;12.00;99.90;;;;;;5021955;28;20033;-75
2021/09/18 04:22:22;;;;;;;23.48;20.73;;;12.00;99.90;;;;;;5024384;28;20041;-75
2021/09/18 04:24:48;;;;;;;25.27;20.42;;;12.00;99.90;;;;;;5021265;28;20033;-74
2021/09/18 04:27:13;;;;;;;25.38;21.05;;;12.00;99.90;;;;;;5017827;28;20029;-76
2021/09/18 04:29:39;;;;;;;30.90;22.95;;;12.00;99.90;;;;;;5020749;28;20057;-72
2021/09/18 04:32:04;;;;;;;35.00;25.13;;;11.90;99.90;;;;;;5027234;28;20472;-74
2021/09/18 04:34:30;;;;;;;27.33;22.08;;;11.90;99.90;;;;;;5020736;28;20033;-75
2021/09/18 04:36:57;;;;;;;22.67;19.58;;;11.80;99.90;;;;;;5024058;28;20067;-75
2021/09/18 04:39:23;;;;;;;25.17;21.38;;;11.70;99.90;;;;;;5010896;28;20036;-74
2021/09/18 04:41:49;;;;;;;36.33;25.92;;;11.60;99.90;;;;;;5028778;28;20034;-74
2021/09/18 04:44:14;;;;;;;53.30;30.30;;;11.60;99.90;;;;;;5031862;28;20116;-75
2021/09/18 04:46:40;;;;;;;33.85;25.00;;;11.50;99.90;;;;;;5018527;28;20108;-74
2021/09/18 04:49:05;;;;;;;39.28;27.92;;;11.50;99.90;;;;;;5031700;28;20029;-74
2021/09/18 04:51:31;;;;;;;27.63;22.13;;;11.50;99.90;;;;;;5017427;28;20036;-75
2021/09/18 04:53:57;;;;;;;39.42;28.27;;;11.50;99.90;;;;;;5020407;28;20018;-73
2021/09/18 04:56:23;;;;;;;53.25;35.58;;;11.40;99.90;;;;;;5025234;28;20033;-74
2021/09/18 04:58:48;;;;;;;163.43;40.58;;;11.40;99.90;;;;;;5021756;28;20399;-74
2021/09/18 05:01:14;;;;;;;350.13;39.85;;;11.20;99.90;;;;;;5018527;28;20022;-76
2021/09/18 05:03:39;;;;;;;412.70;56.90;;;11.10;99.90;;;;;;5031794;28;20041;-76
2021/09/18 05:06:05;;;;;;;199.50;33.58;;;11.10;99.90;;;;;;5017104;28;20045;-75
2021/09/18 05:08:30;;;;;;;54.58;35.72;;;11.20;99.90;;;;;;5031585;28;20026;-76
2021/09/18 05:10:56;;;;;;;44.83;31.83;;;11.10;99.90;;;;;;5016875;28;20017;-76
2021/09/18 05:13:21;;;;;;;43.03;30.17;;;11.10;99.90;;;;;;5021675;28;20026;-76
2021/09/18 05:15:47;;;;;;;43.30;31.50;;;11.10;99.90;;;;;;5023810;28;20487;-74
2021/09/18 05:18:12;;;;;;;132.18;23.70;;;11.20;99.90;;;;;;5010614;28;20057;-77
2021/09/18 05:20:38;;;;;;;445.05;37.50;;;11.30;99.90;;;;;;5027928;28;20108;-76
2021/09/18 05:23:03;;;;;;;275.05;28.40;;;11.20;99.90;;;;;;5031392;28;20056;-72
2021/09/18 05:25:29;;;;;;;246.60;27.42;;;11.30;99.90;;;;;;5031485;28;20030;-71
2021/09/18 05:27:54;;;;;;;106.50;21.00;;;11.20;99.90;;;;;;5021735;28;20056;-76
2021/09/18 05:30:20;;;;;;;165.20;30.08;;;11.30;99.90;;;;;;5023700;28;20506;-74
2021/09/18 05:32:45;;;;;;;230.57;30.63;;;11.30;99.90;;;;;;5020939;28;20533;-73
2021/09/18 05:35:11;;;;;;;42.15;21.38;;;11.20;99.90;;;;;;5018060;28;20029;-74
2021/09/18 05:37:36;;;;;;;38.58;20.15;;;11.40;99.90;;;;;;5021873;28;20643;-74
2021/09/18 05:40:02;;;;;;;46.50;18.85;;;11.40;99.90;;;;;;5024962;28;20096;-74
2021/09/18 05:42:28;;;;;;;34.72;18.88;;;11.50;99.90;;;;;;5010126;28;20538;-74
2021/09/18 05:44:53;;;;;;;20.45;18.25;;;11.60;99.90;;;;;;5024912;28;20038;-73
2021/09/18 05:47:19;;;;;;;16.88;15.07;;;11.70;99.90;;;;;;5011590;28;20032;-74
2021/09/18 05:49:44;;;;;;;42.88;21.10;;;11.70;99.90;;;;;;5024638;28;20029;-74
2021/09/18 05:52:10;;;;;;;38.22;19.10;;;11.70;99.90;;;;;;5019068;28;20037;-74
2021/09/18 05:54:36;;;;;;;68.88;22.50;;;11.50;99.90;;;;;;5017910;28;20555;-74
2021/09/18 05:57:01;;;;;;;34.53;19.85;;;11.60;99.90;;;;;;5022322;28;20480;-74
2021/09/18 05:59:27;;;;;;;50.13;20.38;;;11.70;99.90;;;;;;5024622;28;20036;-74
2021/09/18 06:01:52;;;;;;;86.97;25.30;;;11.80;99.90;;;;;;5021610;28;20487;-74
2021/09/18 06:04:18;;;;;;;99.75;25.20;;;11.70;99.90;;;;;;5020003;28;20120;-74
2021/09/18 06:06:44;;;;;;;70.95;26.83;;;11.60;99.90;;;;;;5026319;28;20041;-74
2021/09/18 06:09:09;;;;;;;143.15;34.67;;;11.70;99.90;;;;;;5028017;28;20033;-74
2021/09/18 06:11:35;;;;;;;251.15;50.30;;;11.60;99.90;;;;;;5024770;28;20087;-74
2021/09/18 06:14:00;;;;;;;115.95;41.70;;;11.40;99.90;;;;;;5021129;28;20080;-74
2021/09/18 06:16:26;;;;;;;99.20;38.53;;;11.30;99.90;;;;;;5025484;28;20026;-74
2021/09/18 06:18:52;;;;;;;43.63;29.23;;;11.40;99.90;;;;;;5026630;28;20368;-74
2021/09/18 06:21:19;;;;;;;46.75;34.92;;;11.50;99.90;;;;;;5020986;28;20146;-75
2021/09/18 06:23:45;;;;;;;39.97;28.77;;;11.60;99.90;;;;;;5020939;28;20018;-74
2021/09/18 06:26:14;;;;;;;47.85;33.33;;;11.80;99.90;;;;;;5040342;28;20033;-74
2021/09/18 06:28:39;;;;;;;47.35;35.03;;;11.80;99.90;;;;;;5038184;28;20068;-74
2021/09/18 06:31:05;;;;;;;45.05;32.45;;;11.90;99.90;;;;;;5020670;28;20060;-75
2021/09/18 06:33:30;;;;;;;43.13;30.65;;;12.00;99.90;;;;;;5019749;28;20472;-74
2021/09/18 06:35:56;;;;;;;39.25;28.60;;;12.00;99.90;;;;;;5025444;28;20029;-75
2021/09/18 06:38:22;;;;;;;42.00;28.90;;;12.20;99.90;;;;;;5027401;28;20025;-74
2021/09/18 06:40:49;;;;;;;32.78;24.30;;;12.10;99.90;;;;;;5021760;28;20079;-74
2021/09/18 06:43:15;;;;;;;32.92;26.08;;;12.20;99.90;;;;;;5020630;28;20037;-74
2021/09/18 06:45:41;;;;;;;37.63;27.35;;;12.20;99.90;;;;;;5024677;28;20022;-74
2021/09/18 06:48:06;;;;;;;45.22;30.13;;;12.20;99.90;;;;;;5028320;28;20395;-74
2021/09/18 06:50:32;;;;;;;43.95;30.10;;;12.20;99.90;;;;;;5033824;28;20026;-74
2021/09/18 06:52:58;;;;;;;46.80;30.48;;;12.20;99.90;;;;;;5018928;28;20341;-73
2021/09/18 06:55:24;;;;;;;32.95;26.45;;;12.30;99.90;;;;;;5026557;28;20025;-74
2021/09/18 06:57:50;;;;;;;56.50;34.05;;;12.60;99.90;;;;;;5025940;28;20032;-74
2021/09/18 07:00:16;;;;;;;44.38;32.60;;;12.60;99.90;;;;;;5021515;28;20025;-74
2021/09/18 07:02:42;;;;;;;49.65;34.25;;;12.70;99.90;;;;;;5032108;28;20081;-74
2021/09/18 07:05:08;;;;;;;73.93;44.75;;;12.80;99.90;;;;;;5023395;28;20049;-75
2021/09/18 07:07:36;;;;;;;45.55;30.50;;;12.70;99.90;;;;;;5027062;28;20064;-74
2021/09/18 07:10:02;;;;;;;58.30;36.38;;;12.60;99.90;;;;;;5021681;28;20037;-74
2021/09/18 07:12:28;;;;;;;47.47;31.70;;;12.80;99.90;;;;;;5019457;28;20033;-74
2021/09/18 07:14:54;;;;;;;52.05;35.47;;;12.70;99.90;;;;;;5023448;28;20092;-74
2021/09/18 07:17:19;;;;;;;45.05;32.00;;;12.70;99.90;;;;;;5012646;28;20091;-74
2021/09/18 07:19:45;;;;;;;67.13;45.90;;;12.90;99.90;;;;;;5021012;28;20033;-74
2021/09/18 07:22:10;;;;;;;52.25;38.72;;;13.00;99.90;;;;;;5032908;28;20036;-74
2021/09/18 07:24:36;;;;;;;45.95;32.35;;;13.10;99.90;;;;;;5024464;28;20053;-74
2021/09/18 07:27:01;;;;;;;37.53;28.92;;;13.10;99.90;;;;;;5026643;28;20036;-73
2021/09/18 07:29:27;;;;;;;42.10;30.55;;;13.10;99.90;;;;;;5021794;28;20403;-74
2021/09/18 07:31:54;;;;;;;39.58;30.70;;;13.30;99.90;;;;;;5019515;28;20426;-75
2021/09/18 07:34:20;;;;;;;42.53;32.83;;;13.00;99.90;;;;;;5024745;28;20380;-74
2021/09/18 07:36:46;;;;;;;42.10;31.95;;;12.90;99.90;;;;;;5026491;28;20029;-74
2021/09/18 07:39:11;;;;;;;40.08;30.25;;;13.00;99.90;;;;;;5013309;28;20069;-74
2021/09/18 07:41:37;;;;;;;41.38;29.73;;;13.20;99.90;;;;;;5026176;28;20497;-74
2021/09/18 07:44:03;;;;;;;33.85;27.95;;;13.30;99.90;;;;;;5021467;28;20033;-74
2021/09/18 07:46:30;;;;;;;38.17;30.00;;;13.40;99.90;;;;;;5018005;28;20030;-74
2021/09/18 07:48:57;;;;;;;36.22;27.92;;;13.60;99.90;;;;;;5011810;28;20033;-74
2021/09/18 07:51:22;;;;;;;32.47;26.38;;;13.70;99.90;;;;;;5028526;28;20025;-72
2021/09/18 07:53:48;;;;;;;34.58;27.63;;;13.90;99.90;;;;;;5031727;28;20515;-74
2021/09/18 07:56:13;;;;;;;27.63;22.80;;;14.00;99.90;;;;;;5031450;28;20029;-74
2021/09/18 07:58:39;;;;;;;37.35;29.65;;;14.00;99.90;;;;;;5032633;28;20025;-74
2021/09/18 08:01:04;;;;;;;36.28;28.83;;;14.00;99.90;;;;;;5018200;28;20045;-74
2021/09/18 08:03:30;;;;;;;37.97;28.48;;;14.10;99.90;;;;;;5032513;28;20535;-74
2021/09/18 08:05:55;;;;;;;33.00;26.80;;;14.10;99.90;;;;;;5017706;28;20026;-74
2021/09/18 08:08:21;;;;;;;34.55;26.05;;;14.30;99.90;;;;;;5032278;28;20483;-74
2021/09/18 08:10:46;;;;;;;34.15;27.20;;;14.20;99.90;;;;;;5032511;28;20033;-74
2021/09/18 08:13:12;;;;;;;34.72;27.75;;;14.10;99.90;;;;;;5022630;28;20113;-74
2021/09/18 08:15:37;;;;;;;38.97;29.05;;;14.00;99.90;;;;;;5027512;28;20036;-73
2021/09/18 08:18:03;;;;;;;39.30;30.08;;;14.00;99.90;;;;;;5032229;28;20537;-74
2021/09/18 08:20:28;;;;;;;38.70;29.15;;;14.10;99.90;;;;;;5032311;28;20029;-73
2021/09/18 08:22:54;;;;;;;36.63;29.70;;;14.20;99.90;;;;;;5022037;28;20032;-74
2021/09/18 08:25:19;;;;;;;35.45;27.75;;;14.30;99.90;;;;;;5013969;28;20550;-74
2021/09/18 08:27:45;;;;;;;42.15;30.17;;;14.20;99.90;;;;;;5031324;28;20075;-74
2021/09/18 08:30:12;;;;;;;37.63;29.75;;;14.20;99.90;;;;;;5029604;28;20029;-72
2021/09/18 08:32:38;;;;;;;38.28;30.38;;;14.10;99.90;;;;;;5022283;28;20049;-73
2021/09/18 08:35:04;;;;;;;39.55;30.45;;;14.00;99.90;;;;;;5029764;28;20098;-74
2021/09/18 08:37:29;;;;;;;36.10;29.10;;;14.10;99.90;;;;;;5031489;28;20059;-74
2021/09/18 08:39:55;;;;;;;38.28;30.85;;;14.30;99.90;;;;;;5031644;28;20080;-74
2021/09/18 08:42:20;;;;;;;39.00;29.88;;;14.40;99.90;;;;;;5031202;28;20426;-73
2021/09/18 08:44:46;;;;;;;39.60;30.05;;;14.40;99.90;;;;;;5027377;28;20025;-73
2021/09/18 08:47:14;;;;;;;34.00;29.15;;;14.50;99.90;;;;;;5025720;28;20383;-74
2021/09/18 08:49:40;;;;;;;39.63;30.23;;;14.60;99.90;;;;;;5027404;28;20029;-74
2021/09/18 08:52:07;;;;;;;37.47;30.48;;;14.70;99.90;;;;;;5022041;28;20030;-73
2021/09/18 08:54:37;;;;;;;36.47;29.05;;;14.50;99.90;;;;;;5029151;28;20518;-74
2021/09/18 08:57:03;;;;;;;33.92;28.67;;;14.60;99.90;;;;;;5027631;28;20447;-74
2021/09/18 08:59:28;;;;;;;35.15;28.33;;;14.70;99.90;;;;;;5028668;28;20057;-74
2021/09/18 09:02:13;;;;;;;38.83;29.92;;;14.90;99.90;;;;;;5029980;28;20669;-74
2021/09/18 09:04:39;;;;;;;39.72;29.67;;;14.80;99.90;;;;;;5031662;28;20376;-74
2021/09/18 09:07:08;;;;;;;37.55;28.88;;;14.80;99.90;;;;;;5027145;28;20124;-74
2021/09/18 09:09:52;;;;;;;36.67;30.10;;;14.80;99.90;;;;;;5031283;28;20037;-74
2021/09/18 09:12:35;;;;;;;33.60;27.75;;;14.90;99.90;;;;;;5011596;28;20511;-74
2021/09/18 09:15:07;;;;;;;37.05;27.52;;;14.90;99.90;;;;;;5021846;28;20033;-73
2021/09/18 09:17:38;;;;;;;34.38;26.75;;;15.20;99.90;;;;;;5028457;28;20493;-75
2021/09/18 09:20:05;;;;;;;29.90;24.92;;;15.20;99.90;;;;;;5027507;28;20471;-75
2021/09/18 09:22:39;;;;;;;29.95;24.17;;;15.60;99.90;;;;;;5029745;28;20730;-73
2021/09/18 09:25:25;;;;;;;33.47;24.60;;;15.80;99.90;;;;;;5014583;28;20036;-74
2021/09/18 09:27:51;;;;;;;26.42;20.98;;;15.80;99.90;;;;;;5029874;28;20672;-75
2021/09/18 09:30:32;;;;;;;25.52;20.27;;;16.20;99.90;;;;;;5030540;28;20037;-74
2021/09/18 09:33:06;;;;;;;26.35;19.98;;;16.50;99.90;;;;;;5031373;28;20474;-74
2021/09/18 09:35:32;;;;;;;27.20;20.42;;;16.40;99.90;;;;;;5031294;28;20487;-74
2021/09/18 09:37:57;;;;;;;22.45;19.70;;;16.60;99.90;;;;;;5034944;28;20039;-74
2021/09/18 09:40:32;;;;;;;23.90;18.63;;;16.70;99.90;;;;;;5035306;28;20641;-75
2021/09/18 09:42:58;;;;;;;17.02;14.35;;;16.50;99.90;;;;;;5034966;28;20503;-74
2021/09/18 09:45:23;;;;;;;16.40;13.63;;;16.60;99.90;;;;;;5034879;28;20032;-74
2021/09/18 09:48:14;;;;;;;14.07;11.77;;;17.10;99.90;;;;;;5024647;28;20025;-75
2021/09/18 09:50:43;;;;;;;13.68;10.90;;;17.00;99.90;;;;;;5034963;28;20029;-77
2021/09/18 09:53:24;;;;;;;16.40;11.70;;;16.60;99.90;;;;;;5028258;28;20022;-75
2021/09/18 09:55:49;;;;;;;14.63;10.40;;;16.60;99.90;;;;;;5029863;28;20024;-75
2021/09/18 09:58:15;;;;;;;13.80;12.30;;;16.70;99.90;;;;;;5028054;28;20018;-73
2021/09/18 10:00:50;;;;;;;14.63;11.82;;;16.70;99.90;;;;;;5014774;28;20033;-75
2021/09/18 10:03:22;;;;;;;31.08;15.18;;;17.00;99.90;;;;;;5023787;28;20124;-75
2021/09/18 10:05:49;;;;;;;15.77;11.93;;;17.10;99.90;;;;;;5034628;28;20400;-74
2021/09/18 10:08:21;;;;;;;18.85;13.95;;;17.10;99.90;;;;;;5025680;28;20032;-75
2021/09/18 10:10:46;;;;;;;15.77;12.43;;;17.10;99.90;;;;;;5031785;28;20018;-74
2021/09/18 10:13:13;;;;;;;16.20;13.13;;;17.10;99.90;;;;;;5028655;28;20022;-75
2021/09/18 10:15:39;;;;;;;14.00;12.20;;;17.00;99.90;;;;;;5030118;28;20033;-75
2021/09/18 10:18:05;;;;;;;13.90;12.23;;;17.00;99.90;;;;;;5018538;28;20018;-75
2021/09/18 10:23:18;;;;;;;12.57;10.73;;;17.30;99.90;;;;;;5034110;28;20060;-75
2021/09/18 10:25:49;;;;;;;13.10;11.70;;;17.20;99.90;;;;;;5034150;28;20032;-75
2021/09/18 10:28:20;;;;;;;13.55;12.15;;;16.90;99.90;;;;;;5034218;28;20022;-75
2021/09/18 10:30:57;;;;;;;15.68;13.00;;;16.90;99.90;;;;;;5035040;28;20363;-75
2021/09/18 10:33:26;;;;;;;12.98;11.25;;;17.10;99.90;;;;;;5032558;28;20100;-75
2021/09/18 10:36:00;;;;;;;14.30;10.05;;;17.40;99.90;;;;;;5026676;28;20022;-74
2021/09/18 10:38:28;;;;;;;10.98;8.80;;;17.40;99.90;;;;;;5032544;28;20036;-75
2021/09/18 10:41:16;;;;;;;10.68;9.10;;;17.50;99.90;;;;;;5030290;28;20382;-75
2021/09/18 10:43:45;;;;;;;11.10;8.35;;;17.60;99.90;;;;;;5031111;28;20440;-75
2021/09/18 10:46:44;;;;;;;9.25;8.25;;;17.60;99.90;;;;;;5033716;28;20026;-75
2021/09/18 10:49:32;;;;;;;10.77;9.30;;;17.40;99.90;;;;;;5022917;28;20033;-74
2021/09/18 10:52:16;;;;;;;13.15;9.02;;;17.20;99.90;;;;;;5033334;28;20026;-74
2021/09/18 10:55:03;;;;;;;11.77;7.60;;;17.20;99.90;;;;;;5031319;28;20021;-75
2021/09/18 10:57:49;;;;;;;10.40;7.43;;;17.00;99.90;;;;;;5018859;28;20060;-75
2021/09/18 11:00:21;;;;;;;10.07;6.93;;;17.00;99.90;;;;;;5028425;28;20136;-75
2021/09/18 11:03:31;;;;;;;8.55;7.47;;;17.00;99.90;;;;;;5033095;28;20067;-75
2021/09/18 11:05:56;;;;;;;8.35;6.90;;;16.80;99.90;;;;;;5031232;28;20052;-75
2021/09/18 11:08:24;;;;;;;8.75;7.28;;;16.80;99.90;;;;;;5029580;28;20072;-74
2021/09/18 11:10:58;;;;;;;8.25;7.00;;;17.00;99.90;;;;;;5028302;28;20105;-75
2021/09/18 11:13:26;;;;;;;7.18;6.35;;;17.40;99.90;;;;;;5023738;28;20026;-75
2021/09/18 11:15:56;;;;;;;6.68;5.88;;;17.60;99.90;;;;;;5026622;28;20022;-75
2021/09/18 11:18:43;;;;;;;6.38;5.18;;;17.80;99.90;;;;;;5033146;28;20048;-75
2021/09/18 11:21:35;;;;;;;5.75;4.20;;;18.40;99.90;;;;;;5021235;28;20032;-76
2021/09/18 11:24:22;;;;;;;3.78;3.38;;;18.50;99.90;;;;;;5022798;28;20032;-76
2021/09/18 11:26:58;;;;;;;3.90;3.50;;;18.20;99.90;;;;;;5026554;28;20033;-71
2021/09/18 11:29:23;;;;;;;;;;;18.10;99.90;;;;;;5031324;28;20543;-73
2021/09/18 11:31:57;;;;;;;5.70;4.20;;;18.00;99.90;;;;;;5032515;28;19999;-74
2021/09/18 11:34:29;;;;;;;5.38;3.30;;;18.00;99.90;;;;;;5034359;28;20101;-74
2021/09/18 11:36:57;;;;;;;4.45;3.50;;;18.20;99.90;;;;;;5020593;28;20049;-74
2021/09/18 11:39:41;;;;;;;3.33;3.03;;;18.30;99.90;;;;;;5031849;28;20021;-74
2021/09/18 11:42:09;;;;;;;3.78;3.08;;;18.50;99.90;;;;;;5020784;28;20482;-74
2021/09/18 11:44:34;;;;;;;3.40;3.10;;;19.10;99.90;;;;;;5029473;28;20040;-75
2021/09/18 11:47:04;;;;;;;4.03;3.63;;;19.60;99.90;;;;;;5029472;28;20033;-75
2021/09/18 11:49:31;;;;;;;3.90;3.13;;;19.50;99.90;;;;;;5025745;28;20029;-75
2021/09/18 11:52:02;;;;;;;3.90;2.90;;;19.00;99.90;;;;;;5023211;28;20029;-75
2021/09/18 11:54:27;;;;;;;5.50;3.60;;;18.80;99.90;;;;;;5025564;28;20092;-75
2021/09/18 11:56:53;;;;;;;3.20;2.85;;;19.60;99.90;;;;;;5022509;28;20483;-74
2021/09/18 11:59:18;;;;;;;3.10;2.67;;;19.20;99.90;;;;;;5030384;28;20057;-75
2021/09/18 12:01:48;;;;;;;3.60;2.88;;;18.80;99.90;;;;;;5031661;28;20030;-75
2021/09/18 12:04:14;;;;;;;4.35;3.10;;;18.70;99.90;;;;;;5024822;28;20056;-75
2021/09/18 12:06:40;;;;;;;3.30;3.00;;;19.00;99.90;;;;;;5025301;28;20033;-75
2021/09/18 12:09:07;;;;;;;3.42;2.53;;;19.90;99.90;;;;;;5028257;28;20037;-75
2021/09/18 12:11:37;;;;;;;3.35;2.83;;;21.40;99.90;;;;;;5031133;28;20021;-76
2021/09/18 12:14:02;;;;;;;2.75;2.30;;;21.50;99.90;;;;;;5022229;28;20540;-76
2021/09/18 12:16:29;;;;;;;2.40;2.20;;;21.60;99.90;;;;;;5022171;28;20037;-75
2021/09/18 12:18:57;;;;;;;3.63;3.33;;;22.20;99.90;;;;;;5025735;28;20117;-76
2021/09/18 12:21:26;;;;;;;4.07;2.30;;;21.60;99.90;;;;;;5031113;28;20018;-76
2021/09/18 12:23:58;;;;;;;3.05;1.77;;;22.70;99.90;;;;;;5030234;28;20024;-76
2021/09/18 12:26:27;;;;;;;2.85;2.33;;;22.00;99.90;;;;;;5029937;28;20029;-76
2021/09/18 12:29:08;;;;;;;3.03;1.98;;;22.60;99.90;;;;;;5030067;28;20021;-76
2021/09/18 12:31:34;;;;;;;3.55;2.15;;;22.40;99.90;;;;;;5030319;28;20057;-76
2021/09/18 12:34:19;;;;;;;3.85;2.13;;;22.00;99.90;;;;;;5031239;28;20124;-76